createdAt,value
2018-05-09T00:00:28.544Z,0.00
2018-05-09T00:01:34.083Z,0.00
2018-05-09T00:02:39.622Z,0.00
2018-05-09T00:03:45.169Z,0.00
2018-05-09T00:04:50.703Z,0.00
2018-05-09T00:05:56.247Z,0.00
2018-05-09T00:07:01.784Z,0.00
2018-05-09T00:08:07.327Z,0.00
2018-05-09T00:09:12.870Z,0.00
2018-05-09T00:10:18.417Z,0.00
2018-05-09T00:11:23.956Z,0.00
2018-05-09T00:12:29.490Z,0.00
2018-05-09T00:13:35.038Z,0.00
2018-05-09T00:14:40.573Z,0.00
2018-05-09T00:15:46.112Z,0.00
2018-05-09T00:16:51.656Z,0.00
2018-05-09T00:17:57.201Z,0.00
2018-05-09T00:19:02.736Z,0.00
2018-05-09T00:20:08.277Z,0.00
2018-05-09T00:21:13.817Z,0.00
2018-05-09T00:22:19.366Z,0.00
2018-05-09T00:23:24.909Z,0.00
2018-05-09T00:24:30.445Z,0.00
2018-05-09T00:25:35.985Z,0.00
2018-05-09T00:26:41.522Z,0.00
2018-05-09T00:27:47.066Z,0.00
2018-05-09T00:28:52.601Z,0.00
2018-05-09T00:29:58.145Z,0.00
2018-05-09T00:31:03.689Z,0.00
2018-05-09T00:32:09.226Z,0.00
2018-05-09T00:33:14.764Z,0.00
2018-05-09T00:34:20.307Z,0.00
2018-05-09T00:35:25.847Z,0.00
2018-05-09T00:36:31.388Z,0.00
2018-05-09T00:37:36.935Z,0.00
2018-05-09T00:38:42.475Z,0.00
2018-05-09T00:39:48.010Z,0.00
2018-05-09T00:40:53.557Z,0.00
2018-05-09T00:41:59.096Z,0.00
2018-05-09T00:43:04.639Z,0.00
2018-05-09T00:44:10.177Z,0.00
2018-05-09T00:45:15.726Z,0.00
2018-05-09T00:46:21.256Z,0.00
2018-05-09T00:47:26.799Z,0.00
2018-05-09T00:48:32.336Z,0.00
2018-05-09T00:49:37.876Z,0.00
2018-05-09T00:50:43.418Z,0.00
2018-05-09T00:51:48.959Z,0.00
2018-05-09T00:52:54.504Z,0.00
2018-05-09T00:54:00.043Z,0.00
2018-05-09T00:55:05.585Z,0.00
2018-05-09T00:56:11.124Z,0.00
2018-05-09T00:57:16.668Z,0.00
2018-05-09T00:58:22.210Z,0.00
2018-05-09T00:59:27.746Z,0.00
2018-05-09T01:00:33.284Z,0.00
2018-05-09T01:01:38.830Z,0.00
2018-05-09T01:02:44.368Z,0.00
2018-05-09T01:03:49.913Z,0.00
2018-05-09T01:04:55.530Z,0.00
2018-05-09T01:06:00.993Z,0.00
2018-05-09T01:07:06.536Z,0.00
2018-05-09T01:08:12.070Z,0.00
2018-05-09T01:09:17.613Z,0.00
2018-05-09T01:10:23.155Z,0.00
2018-05-09T01:11:28.694Z,0.00
2018-05-09T01:12:34.230Z,0.00
2018-05-09T01:13:39.774Z,0.00
2018-05-09T01:14:45.312Z,0.00
2018-05-09T01:15:50.851Z,0.00
2018-05-09T01:16:56.395Z,0.00
2018-05-09T01:18:01.937Z,0.00
2018-05-09T01:19:07.476Z,0.00
2018-05-09T01:20:13.018Z,0.00
2018-05-09T01:21:18.557Z,0.00
2018-05-09T01:22:24.095Z,0.00
2018-05-09T01:23:29.643Z,0.00
2018-05-09T01:24:35.181Z,0.00
2018-05-09T01:25:40.721Z,0.00
2018-05-09T01:26:46.263Z,0.00
2018-05-09T01:27:51.799Z,0.00
2018-05-09T01:28:57.337Z,0.00
2018-05-09T01:30:02.879Z,0.00
2018-05-09T01:31:08.423Z,0.00
2018-05-09T01:32:13.959Z,0.00
2018-05-09T01:33:19.507Z,0.00
2018-05-09T01:34:25.039Z,0.00
2018-05-09T01:35:30.581Z,0.00
2018-05-09T01:36:36.121Z,0.00
2018-05-09T01:37:41.666Z,0.00
2018-05-09T01:38:47.205Z,0.00
2018-05-09T01:39:52.741Z,0.00
2018-05-09T01:40:58.283Z,0.00
2018-05-09T01:42:03.822Z,0.00
2018-05-09T01:43:09.368Z,0.00
2018-05-09T01:44:14.903Z,0.00
2018-05-09T01:45:20.447Z,0.00
2018-05-09T01:46:25.984Z,0.00
2018-05-09T01:47:31.530Z,0.00
2018-05-09T01:48:37.073Z,0.00
2018-05-09T01:49:42.608Z,0.00
2018-05-09T01:50:48.152Z,0.00
2018-05-09T01:51:53.685Z,0.00
2018-05-09T01:52:59.230Z,0.00
2018-05-09T01:54:04.775Z,0.00
2018-05-09T01:55:10.320Z,0.00
2018-05-09T01:56:15.849Z,0.00
2018-05-09T01:57:21.388Z,0.00
2018-05-09T01:58:26.931Z,0.00
2018-05-09T01:59:32.470Z,0.00
2018-05-09T02:00:38.014Z,0.00
2018-05-09T02:01:43.559Z,0.00
2018-05-09T02:02:49.099Z,0.00
2018-05-09T02:03:54.636Z,0.00
2018-05-09T02:05:00.174Z,0.00
2018-05-09T02:06:05.791Z,0.00
2018-05-09T02:07:11.250Z,0.00
2018-05-09T02:08:16.795Z,0.00
2018-05-09T02:09:22.344Z,0.00
2018-05-09T02:10:27.872Z,0.00
2018-05-09T02:11:33.417Z,0.00
2018-05-09T02:12:38.952Z,0.00
2018-05-09T02:13:44.497Z,0.00
2018-05-09T02:14:50.032Z,0.00
2018-05-09T02:15:55.571Z,0.00
2018-05-09T02:17:01.112Z,0.00
2018-05-09T02:18:06.658Z,0.00
2018-05-09T02:19:12.201Z,0.00
2018-05-09T02:20:17.733Z,0.00
2018-05-09T02:21:23.273Z,0.00
2018-05-09T02:22:28.819Z,0.00
2018-05-09T02:23:34.358Z,4.00
2018-05-09T02:24:39.894Z,0.00
2018-05-09T02:25:45.435Z,0.00
2018-05-09T02:26:50.976Z,0.00
2018-05-09T02:27:56.514Z,0.00
2018-05-09T02:29:02.058Z,0.00
2018-05-09T02:30:07.597Z,0.00
2018-05-09T02:31:13.227Z,0.00
2018-05-09T02:32:18.683Z,0.00
2018-05-09T02:33:24.227Z,0.00
2018-05-09T02:34:29.763Z,0.00
2018-05-09T02:35:35.304Z,0.00
2018-05-09T02:36:40.838Z,0.00
2018-05-09T02:37:46.374Z,0.00
2018-05-09T02:38:51.918Z,0.00
2018-05-09T02:39:57.456Z,0.00
2018-05-09T02:41:03.004Z,0.00
2018-05-09T02:42:08.538Z,0.00
2018-05-09T02:43:14.081Z,0.00
2018-05-09T02:44:19.619Z,4.00
2018-05-09T02:45:25.160Z,0.00
2018-05-09T02:46:30.697Z,0.00
2018-05-09T02:47:36.235Z,4.00
2018-05-09T02:48:41.785Z,4.00
2018-05-09T02:49:47.316Z,0.00
2018-05-09T02:50:52.859Z,4.00
2018-05-09T02:51:58.403Z,0.00
2018-05-09T02:53:03.935Z,4.00
2018-05-09T02:54:09.486Z,4.00
2018-05-09T02:55:15.022Z,8.00
2018-05-09T02:56:20.555Z,8.00
2018-05-09T02:57:26.103Z,8.00
2018-05-09T02:58:31.637Z,8.00
2018-05-09T02:59:37.182Z,8.00
2018-05-09T03:00:42.721Z,12.00
2018-05-09T03:01:48.259Z,12.00
2018-05-09T03:02:53.802Z,12.00
2018-05-09T03:03:59.337Z,12.00
2018-05-09T03:05:04.876Z,20.00
2018-05-09T03:06:10.414Z,20.00
2018-05-09T03:07:15.961Z,20.00
2018-05-09T03:08:21.503Z,28.00
2018-05-09T03:09:27.040Z,28.00
2018-05-09T03:10:32.580Z,32.00
2018-05-09T03:11:38.118Z,32.00
2018-05-09T03:12:43.661Z,36.00
2018-05-09T03:13:49.198Z,44.00
2018-05-09T03:14:54.738Z,48.00
2018-05-09T03:16:00.277Z,56.00
2018-05-09T03:17:05.818Z,56.00
2018-05-09T03:18:11.358Z,64.00
2018-05-09T03:19:16.894Z,72.00
2018-05-09T03:20:22.444Z,80.00
2018-05-09T03:21:27.970Z,84.00
2018-05-09T03:22:33.512Z,92.00
2018-05-09T03:23:39.068Z,104.00
2018-05-09T03:24:44.607Z,112.00
2018-05-09T03:25:50.139Z,120.00
2018-05-09T03:26:55.678Z,132.00
2018-05-09T03:28:01.210Z,140.00
2018-05-09T03:29:06.755Z,152.00
2018-05-09T03:30:12.297Z,164.00
2018-05-09T03:31:17.837Z,176.00
2018-05-09T03:32:23.374Z,188.00
2018-05-09T03:33:28.922Z,204.00
2018-05-09T03:34:34.453Z,220.00
2018-05-09T03:35:39.995Z,236.00
2018-05-09T03:36:45.533Z,252.00
2018-05-09T03:37:51.071Z,268.00
2018-05-09T03:38:56.616Z,288.00
2018-05-09T03:40:02.148Z,304.00
2018-05-09T03:41:07.686Z,324.00
2018-05-09T03:42:13.237Z,344.00
2018-05-09T03:43:18.771Z,364.00
2018-05-09T03:44:24.314Z,380.00
2018-05-09T03:45:29.853Z,404.00
2018-05-09T03:46:35.394Z,424.00
2018-05-09T03:47:40.929Z,444.00
2018-05-09T03:48:46.470Z,468.00
2018-05-09T03:49:52.010Z,492.00
2018-05-09T03:50:57.546Z,516.00
2018-05-09T03:52:03.089Z,540.00
2018-05-09T03:53:08.629Z,564.00
2018-05-09T03:54:14.166Z,588.00
2018-05-09T03:55:19.707Z,612.00
2018-05-09T03:56:25.243Z,640.00
2018-05-09T03:57:30.790Z,668.00
2018-05-09T03:58:36.328Z,700.00
2018-05-09T03:59:41.867Z,724.00
2018-05-09T04:00:47.433Z,756.00
2018-05-09T04:01:52.950Z,780.00
2018-05-09T04:02:58.486Z,812.00
2018-05-09T04:04:04.028Z,836.00
2018-05-09T04:05:09.568Z,864.00
2018-05-09T04:06:15.113Z,892.00
2018-05-09T04:07:20.641Z,924.00
2018-05-09T04:08:26.188Z,964.00
2018-05-09T04:09:31.762Z,1000.00
2018-05-09T04:10:37.265Z,1040.00
2018-05-09T04:11:42.803Z,1100.00
2018-05-09T04:12:48.342Z,1620.00
2018-05-09T04:13:53.888Z,4444.00
2018-05-09T04:14:59.424Z,6472.00
2018-05-09T04:16:04.961Z,6352.00
2018-05-09T04:17:10.506Z,8740.00
2018-05-09T04:18:16.048Z,9828.00
2018-05-09T04:19:21.580Z,7928.00
2018-05-09T04:20:27.122Z,10416.00
2018-05-09T04:21:32.668Z,10100.00
2018-05-09T04:22:38.281Z,11264.00
2018-05-09T04:23:43.741Z,11776.00
2018-05-09T04:24:49.281Z,11744.00
2018-05-09T04:25:54.824Z,11904.00
2018-05-09T04:27:00.363Z,11840.00
2018-05-09T04:28:05.923Z,11808.00
2018-05-09T04:29:11.444Z,11008.00
2018-05-09T04:30:16.982Z,10524.00
2018-05-09T04:31:22.525Z,11416.00
2018-05-09T04:32:28.063Z,6648.00
2018-05-09T04:33:33.605Z,2488.00
2018-05-09T04:34:39.144Z,2604.00
2018-05-09T04:35:44.684Z,6104.00
2018-05-09T04:36:50.236Z,10584.00
2018-05-09T04:37:55.769Z,12640.00
2018-05-09T04:39:01.306Z,10132.00
2018-05-09T04:40:06.853Z,7752.00
2018-05-09T04:41:12.397Z,6104.00
2018-05-09T04:42:17.931Z,5008.00
2018-05-09T04:43:23.472Z,4876.00
2018-05-09T04:46:00.611Z,2420.00
2018-05-09T04:47:06.139Z,4872.00
2018-05-09T04:49:04.596Z,2512.00
2018-05-09T04:50:10.100Z,2096.00
2018-05-09T04:52:08.516Z,2248.00
2018-05-09T04:53:14.053Z,2800.00
2018-05-09T04:55:12.497Z,4744.00
2018-05-09T04:56:18.015Z,4064.00
2018-05-09T04:57:23.553Z,2600.00
2018-05-09T04:58:29.091Z,2208.00
2018-05-09T04:59:34.631Z,2152.00
2018-05-09T05:00:40.171Z,2156.00
2018-05-09T05:01:45.710Z,2160.00
2018-05-09T05:02:51.250Z,2184.00
2018-05-09T05:03:56.799Z,2188.00
2018-05-09T05:05:02.337Z,2208.00
2018-05-09T05:06:07.883Z,2228.00
2018-05-09T05:07:13.424Z,2244.00
2018-05-09T05:08:18.967Z,2260.00
2018-05-09T05:09:24.506Z,2284.00
2018-05-09T05:10:30.049Z,2332.00
2018-05-09T05:11:35.591Z,2500.00
2018-05-09T05:12:41.134Z,2524.00
2018-05-09T05:13:46.675Z,2420.00
2018-05-09T05:14:52.221Z,2400.00
2018-05-09T05:15:57.758Z,2440.00
2018-05-09T05:17:03.293Z,2504.00
2018-05-09T05:18:08.835Z,2548.00
2018-05-09T05:19:14.389Z,2548.00
2018-05-09T05:20:19.919Z,2556.00
2018-05-09T05:21:25.466Z,2572.00
2018-05-09T05:22:31.026Z,2576.00
2018-05-09T05:23:36.546Z,2572.00
2018-05-09T05:24:42.088Z,2560.00
2018-05-09T05:25:47.640Z,2524.00
2018-05-09T05:26:53.174Z,2508.00
2018-05-09T05:27:58.713Z,2512.00
2018-05-09T05:29:04.260Z,2500.00
2018-05-09T05:30:09.801Z,2532.00
2018-05-09T05:31:15.343Z,2556.00
2018-05-09T05:32:20.896Z,2556.00
2018-05-09T05:33:26.433Z,2568.00
2018-05-09T05:34:31.971Z,2588.00
2018-05-09T05:35:37.513Z,2600.00
2018-05-09T05:36:43.055Z,2612.00
2018-05-09T05:37:48.601Z,2612.00
2018-05-09T05:38:54.171Z,2652.00
2018-05-09T05:39:59.679Z,2652.00
2018-05-09T05:41:05.221Z,2672.00
2018-05-09T05:42:10.768Z,2672.00
2018-05-09T05:43:16.306Z,2696.00
2018-05-09T05:44:21.850Z,2716.00
2018-05-09T05:45:27.492Z,2724.00
2018-05-09T05:46:32.936Z,2740.00
2018-05-09T05:47:38.475Z,2752.00
2018-05-09T05:48:44.017Z,2772.00
2018-05-09T05:49:49.562Z,2784.00
2018-05-09T05:50:55.103Z,2800.00
2018-05-09T05:52:00.647Z,2816.00
2018-05-09T05:53:06.191Z,2824.00
2018-05-09T05:54:11.737Z,2844.00
2018-05-09T05:55:17.278Z,2860.00
2018-05-09T05:56:22.809Z,2876.00
2018-05-09T05:57:28.357Z,2900.00
2018-05-09T05:58:33.905Z,2904.00
2018-05-09T05:59:39.442Z,2932.00
2018-05-09T06:00:44.984Z,2944.00
2018-05-09T06:01:50.537Z,2960.00
2018-05-09T06:02:56.076Z,2984.00
2018-05-09T06:04:01.617Z,3000.00
2018-05-09T06:05:07.157Z,3032.00
2018-05-09T06:06:13.486Z,3052.00
2018-05-09T06:07:18.242Z,3068.00
2018-05-09T06:08:23.785Z,3088.00
2018-05-09T06:09:29.329Z,3100.00
2018-05-09T06:10:34.876Z,3108.00
2018-05-09T06:11:40.416Z,3124.00
2018-05-09T06:12:45.956Z,3136.00
2018-05-09T06:13:51.505Z,3156.00
2018-05-09T06:14:57.054Z,3176.00
2018-05-09T06:16:02.590Z,3108.00
2018-05-09T06:17:08.183Z,3232.00
2018-05-09T06:18:13.674Z,3168.00
2018-05-09T06:19:19.222Z,3096.00
2018-05-09T06:20:24.761Z,3124.00
2018-05-09T06:21:30.305Z,3180.00
2018-05-09T06:22:35.847Z,3156.00
2018-05-09T06:23:41.484Z,3232.00
2018-05-09T06:24:46.936Z,3200.00
2018-05-09T06:25:52.475Z,3128.00
2018-05-09T06:26:58.019Z,3184.00
2018-05-09T06:28:03.563Z,3248.00
2018-05-09T06:29:09.114Z,3208.00
2018-05-09T06:30:14.649Z,3268.00
2018-05-09T06:31:20.195Z,3248.00
2018-05-09T06:32:25.742Z,3252.00
2018-05-09T06:33:31.279Z,3272.00
2018-05-09T06:34:36.826Z,3308.00
2018-05-09T06:35:42.374Z,3312.00
2018-05-09T06:36:47.914Z,3284.00
2018-05-09T06:37:53.455Z,3392.00
2018-05-09T06:38:58.999Z,3360.00
2018-05-09T06:40:04.541Z,3344.00
2018-05-09T06:41:10.084Z,3364.00
2018-05-09T06:42:15.628Z,3400.00
2018-05-09T06:43:21.176Z,3388.00
2018-05-09T06:44:26.715Z,3392.00
2018-05-09T06:45:32.258Z,3388.00
2018-05-09T06:46:37.805Z,3424.00
2018-05-09T06:47:43.348Z,3412.00
2018-05-09T06:48:48.898Z,3440.00
2018-05-09T06:49:54.452Z,3424.00
2018-05-09T06:50:59.978Z,3456.00
2018-05-09T06:52:05.528Z,3448.00
2018-05-09T06:53:11.073Z,3448.00
2018-05-09T06:54:16.612Z,3480.00
2018-05-09T06:55:22.156Z,3448.00
2018-05-09T06:56:27.701Z,3456.00
2018-05-09T06:57:33.249Z,3456.00
2018-05-09T06:58:38.793Z,3464.00
2018-05-09T06:59:44.332Z,3504.00
2018-05-09T07:00:49.875Z,3504.00
2018-05-09T07:01:55.425Z,3504.00
2018-05-09T07:03:00.963Z,3520.00
2018-05-09T07:04:06.510Z,3536.00
2018-05-09T07:05:12.054Z,3536.00
2018-05-09T07:06:17.653Z,3540.00
2018-05-09T07:07:23.152Z,3560.00
2018-05-09T07:08:28.695Z,3552.00
2018-05-09T07:09:34.236Z,3560.00
2018-05-09T07:10:39.775Z,3572.00
2018-05-09T07:11:45.327Z,3556.00
2018-05-09T07:12:50.865Z,3572.00
2018-05-09T07:13:56.415Z,3576.00
2018-05-09T07:15:01.952Z,3580.00
2018-05-09T07:16:07.502Z,3588.00
2018-05-09T07:17:13.049Z,3592.00
2018-05-09T07:18:18.594Z,3596.00
2018-05-09T07:19:24.138Z,3600.00
2018-05-09T07:20:29.686Z,3608.00
2018-05-09T07:21:35.228Z,3620.00
2018-05-09T07:22:40.770Z,3636.00
2018-05-09T07:23:46.314Z,3624.00
2018-05-09T07:24:51.857Z,3628.00
2018-05-09T07:25:57.407Z,3632.00
2018-05-09T07:27:02.952Z,3632.00
2018-05-09T07:28:08.498Z,3640.00
2018-05-09T07:29:14.045Z,3648.00
2018-05-09T07:30:19.582Z,3652.00
2018-05-09T07:31:25.137Z,3656.00
2018-05-09T07:32:30.677Z,3664.00
2018-05-09T07:33:36.221Z,3664.00
2018-05-09T07:34:41.765Z,3672.00
2018-05-09T07:35:47.318Z,3676.00
2018-05-09T07:36:52.859Z,3680.00
2018-05-09T07:37:58.398Z,3692.00
2018-05-09T07:39:03.943Z,3696.00
2018-05-09T07:40:09.495Z,3692.00
2018-05-09T07:41:15.035Z,3696.00
2018-05-09T07:42:20.582Z,3704.00
2018-05-09T07:43:26.137Z,3708.00
2018-05-09T07:44:31.682Z,3716.00
2018-05-09T07:45:37.218Z,3720.00
2018-05-09T07:46:42.761Z,3728.00
2018-05-09T07:47:48.346Z,3732.00
2018-05-09T07:48:53.854Z,3732.00
2018-05-09T07:49:59.404Z,3736.00
2018-05-09T07:51:04.945Z,3736.00
2018-05-09T07:52:10.491Z,3744.00
2018-05-09T07:53:16.039Z,3748.00
2018-05-09T07:54:21.584Z,3764.00
2018-05-09T07:55:27.136Z,3684.00
2018-05-09T07:56:32.676Z,3736.00
2018-05-09T07:57:38.225Z,3732.00
2018-05-09T07:58:43.763Z,3784.00
2018-05-09T07:59:49.316Z,3772.00
2018-05-09T08:00:54.863Z,3720.00
2018-05-09T08:02:00.406Z,3740.00
2018-05-09T08:03:05.960Z,3672.00
2018-05-09T08:04:11.496Z,3524.00
2018-05-09T08:05:17.050Z,3588.00
2018-05-09T08:06:22.587Z,3608.00
2018-05-09T08:07:28.143Z,3572.00
2018-05-09T08:08:33.682Z,3608.00
2018-05-09T08:09:39.230Z,3588.00
2018-05-09T08:10:44.776Z,3620.00
2018-05-09T08:11:50.327Z,3568.00
2018-05-09T08:12:55.895Z,3624.00
2018-05-09T08:14:01.420Z,3632.00
2018-05-09T08:15:06.961Z,3628.00
2018-05-09T08:16:12.506Z,3660.00
2018-05-09T08:17:18.054Z,3656.00
2018-05-09T08:18:23.603Z,3652.00
2018-05-09T08:19:29.156Z,3668.00
2018-05-09T08:20:34.699Z,3628.00
2018-05-09T08:21:40.240Z,3648.00
2018-05-09T08:22:45.787Z,3652.00
2018-05-09T08:23:51.395Z,3668.00
2018-05-09T08:24:56.880Z,3648.00
2018-05-09T08:26:02.433Z,3672.00
2018-05-09T08:27:07.985Z,3664.00
2018-05-09T08:28:13.523Z,3652.00
2018-05-09T08:29:19.068Z,3656.00
2018-05-09T08:30:24.619Z,3668.00
2018-05-09T08:31:30.168Z,3664.00
2018-05-09T08:32:35.716Z,3656.00
2018-05-09T08:33:41.258Z,3636.00
2018-05-09T08:34:46.806Z,3640.00
2018-05-09T08:35:52.357Z,3632.00
2018-05-09T08:36:57.897Z,3632.00
2018-05-09T08:38:03.460Z,3636.00
2018-05-09T08:39:08.990Z,3660.00
2018-05-09T08:40:14.539Z,3652.00
2018-05-09T08:41:20.084Z,3644.00
2018-05-09T08:42:25.638Z,3652.00
2018-05-09T08:43:31.230Z,3648.00
2018-05-09T08:44:36.732Z,3628.00
2018-05-09T08:45:42.276Z,3636.00
2018-05-09T08:46:47.825Z,3632.00
2018-05-09T08:47:53.372Z,3644.00
2018-05-09T08:48:58.919Z,3644.00
2018-05-09T08:50:04.462Z,3640.00
2018-05-09T08:51:10.008Z,3640.00
2018-05-09T08:52:15.556Z,3636.00
2018-05-09T08:53:21.101Z,3648.00
2018-05-09T08:54:26.671Z,3644.00
2018-05-09T08:55:32.260Z,3632.00
2018-05-09T08:56:37.743Z,3624.00
2018-05-09T08:57:43.303Z,3616.00
2018-05-09T08:58:48.844Z,3608.00
2018-05-09T08:59:54.384Z,3604.00
2018-05-09T09:00:59.929Z,3596.00
2018-05-09T09:02:05.489Z,3592.00
2018-05-09T09:03:11.026Z,3700.00
2018-05-09T09:04:16.886Z,3724.00
2018-05-09T09:05:22.127Z,3676.00
2018-05-09T09:06:27.744Z,3672.00
2018-05-09T09:07:33.221Z,3680.00
2018-05-09T09:08:38.766Z,3668.00
2018-05-09T09:09:44.316Z,3680.00
2018-05-09T09:10:49.929Z,3660.00
2018-05-09T09:11:55.405Z,3672.00
2018-05-09T09:13:00.956Z,3656.00
2018-05-09T09:14:06.508Z,3648.00
2018-05-09T09:15:12.051Z,3652.00
2018-05-09T09:16:17.598Z,3636.00
2018-05-09T09:17:23.145Z,3636.00
2018-05-09T09:18:28.795Z,3628.00
2018-05-09T09:19:34.377Z,3620.00
2018-05-09T09:20:39.801Z,3628.00
2018-05-09T09:21:45.335Z,3620.00
2018-05-09T09:22:50.887Z,3580.00
2018-05-09T09:23:56.442Z,3596.00
2018-05-09T09:25:01.983Z,3612.00
2018-05-09T09:26:07.525Z,3596.00
2018-05-09T09:27:13.072Z,3584.00
2018-05-09T09:28:18.622Z,3588.00
2018-05-09T09:29:24.170Z,3576.00
2018-05-09T09:30:29.718Z,3568.00
2018-05-09T09:31:35.263Z,3544.00
2018-05-09T09:32:40.819Z,3516.00
2018-05-09T09:33:46.362Z,3532.00
2018-05-09T09:34:51.915Z,3512.00
2018-05-09T09:35:57.459Z,3520.00
2018-05-09T09:37:03.006Z,3524.00
2018-05-09T09:38:08.553Z,3528.00
2018-05-09T09:39:14.099Z,3500.00
2018-05-09T09:40:19.647Z,3492.00
2018-05-09T09:41:25.275Z,3480.00
2018-05-09T09:42:30.754Z,3476.00
2018-05-09T09:43:36.299Z,3464.00
2018-05-09T09:44:41.840Z,3448.00
2018-05-09T09:45:47.394Z,3448.00
2018-05-09T09:46:52.938Z,3440.00
2018-05-09T09:47:58.486Z,3428.00
2018-05-09T09:49:04.038Z,3424.00
2018-05-09T09:50:09.584Z,3436.00
2018-05-09T09:51:15.134Z,3420.00
2018-05-09T09:52:20.688Z,3408.00
2018-05-09T09:53:26.230Z,3412.00
2018-05-09T09:54:31.774Z,3400.00
2018-05-09T09:55:37.321Z,3404.00
2018-05-09T09:56:42.869Z,3436.00
2018-05-09T09:57:48.421Z,3372.00
2018-05-09T09:58:53.965Z,3376.00
2018-05-09T09:59:59.528Z,3364.00
2018-05-09T10:01:05.070Z,3360.00
2018-05-09T10:02:10.611Z,3360.00
2018-05-09T10:03:16.157Z,3360.00
2018-05-09T10:04:21.707Z,3356.00
2018-05-09T10:05:27.255Z,3372.00
2018-05-09T10:06:32.801Z,3336.00
2018-05-09T10:07:38.352Z,3340.00
2018-05-09T10:08:43.902Z,3320.00
2018-05-09T10:09:49.444Z,3320.00
2018-05-09T10:10:55.008Z,3340.00
2018-05-09T10:12:00.542Z,3312.00
2018-05-09T10:13:06.090Z,3312.00
2018-05-09T10:14:11.639Z,3300.00
2018-05-09T10:15:17.191Z,3292.00
2018-05-09T10:16:22.820Z,3296.00
2018-05-09T10:17:28.284Z,3272.00
2018-05-09T10:18:33.833Z,3264.00
2018-05-09T10:19:39.376Z,3268.00
2018-05-09T10:20:44.930Z,3252.00
2018-05-09T10:21:50.480Z,3284.00
2018-05-09T10:22:56.022Z,3268.00
2018-05-09T10:24:01.579Z,3256.00
2018-05-09T10:25:07.120Z,3264.00
2018-05-09T10:26:12.668Z,3204.00
2018-05-09T10:27:18.220Z,3224.00
2018-05-09T10:28:23.768Z,3228.00
2018-05-09T10:29:29.314Z,3256.00
2018-05-09T10:30:34.861Z,3216.00
2018-05-09T10:31:40.414Z,3236.00
2018-05-09T10:32:45.961Z,3236.00
2018-05-09T10:33:51.506Z,3216.00
2018-05-09T10:34:57.053Z,3216.00
2018-05-09T10:36:02.600Z,3212.00
2018-05-09T10:37:08.150Z,3196.00
2018-05-09T10:38:13.707Z,3260.00
2018-05-09T10:39:19.252Z,3188.00
2018-05-09T10:40:24.795Z,3200.00
2018-05-09T10:41:30.344Z,3148.00
2018-05-09T10:42:35.893Z,3212.00
2018-05-09T10:43:41.441Z,3164.00
2018-05-09T10:44:46.990Z,3156.00
2018-05-09T10:45:52.550Z,3172.00
2018-05-09T10:46:58.086Z,3156.00
2018-05-09T10:48:03.634Z,3120.00
2018-05-09T10:49:09.182Z,3136.00
2018-05-09T10:50:14.730Z,3132.00
2018-05-09T10:51:20.283Z,3168.00
2018-05-09T10:52:25.825Z,3144.00
2018-05-09T10:53:31.377Z,3124.00
2018-05-09T10:54:36.929Z,3108.00
2018-05-09T10:55:42.477Z,3132.00
2018-05-09T10:56:48.023Z,3140.00
2018-05-09T10:57:53.573Z,3088.00
2018-05-09T10:58:59.117Z,3100.00
2018-05-09T11:00:04.681Z,3132.00
2018-05-09T11:01:10.220Z,3128.00
2018-05-09T11:02:15.826Z,3128.00
2018-05-09T11:03:21.314Z,3152.00
2018-05-09T11:04:26.864Z,3108.00
2018-05-09T11:05:32.413Z,3088.00
2018-05-09T11:06:37.962Z,3108.00
2018-05-09T11:07:43.506Z,3088.00
2018-05-09T11:08:49.060Z,3112.00
2018-05-09T11:09:54.605Z,2424.00
2018-05-09T11:11:00.157Z,3108.00
2018-05-09T11:12:05.700Z,3112.00
2018-05-09T11:13:11.251Z,3116.00
2018-05-09T11:14:16.800Z,3116.00
2018-05-09T11:15:22.350Z,3184.00
2018-05-09T11:16:27.902Z,3104.00
2018-05-09T11:17:33.539Z,3120.00
2018-05-09T11:18:39.002Z,3084.00
2018-05-09T11:19:44.548Z,3092.00
2018-05-09T11:20:50.104Z,2308.00
2018-05-09T11:21:55.636Z,3108.00
2018-05-09T11:23:01.193Z,2516.00
2018-05-09T11:24:06.734Z,1528.00
2018-05-09T11:25:12.284Z,1512.00
2018-05-09T11:26:17.836Z,1516.00
2018-05-09T11:27:23.379Z,1604.00
2018-05-09T11:28:28.935Z,3160.00
2018-05-09T11:29:34.477Z,2884.00
2018-05-09T11:30:40.027Z,2576.00
2018-05-09T11:31:45.581Z,1672.00
2018-05-09T11:32:51.133Z,3056.00
2018-05-09T11:33:56.678Z,2240.00
2018-05-09T11:35:02.224Z,2704.00
2018-05-09T11:36:07.768Z,2804.00
2018-05-09T11:37:13.319Z,1796.00
2018-05-09T11:38:18.865Z,3220.00
2018-05-09T11:39:24.415Z,2616.00
2018-05-09T11:40:29.970Z,3236.00
2018-05-09T11:41:35.509Z,3320.00
2018-05-09T11:42:41.065Z,3336.00
2018-05-09T11:43:46.609Z,3344.00
2018-05-09T11:44:52.175Z,3360.00
2018-05-09T11:45:57.702Z,3360.00
2018-05-09T11:47:03.258Z,3320.00
2018-05-09T11:48:08.800Z,3248.00
2018-05-09T11:49:14.353Z,3336.00
2018-05-09T11:50:19.907Z,3340.00
2018-05-09T11:51:25.454Z,3288.00
2018-05-09T11:52:31.005Z,3224.00
2018-05-09T11:53:36.544Z,3156.00
2018-05-09T11:54:42.095Z,3292.00
2018-05-09T11:55:47.647Z,1668.00
2018-05-09T11:56:53.194Z,1704.00
2018-05-09T11:57:58.751Z,2132.00
2018-05-09T11:59:04.292Z,1724.00
2018-05-09T12:00:09.836Z,3260.00
2018-05-09T12:01:15.384Z,3224.00
2018-05-09T12:02:20.939Z,3236.00
2018-05-09T12:03:26.483Z,3220.00
2018-05-09T12:04:32.030Z,3144.00
2018-05-09T12:05:37.590Z,3148.00
2018-05-09T12:06:43.130Z,3200.00
2018-05-09T12:07:48.683Z,1732.00
2018-05-09T12:08:54.234Z,1628.00
2018-05-09T12:09:59.772Z,3204.00
2018-05-09T12:11:05.327Z,3244.00
2018-05-09T12:12:10.876Z,3256.00
2018-05-09T12:13:16.419Z,3244.00
2018-05-09T12:14:21.967Z,3228.00
2018-05-09T12:15:27.519Z,3240.00
2018-05-09T12:16:33.065Z,1888.00
2018-05-09T12:17:38.612Z,1996.00
2018-05-09T12:18:44.165Z,2744.00
2018-05-09T12:19:49.713Z,2092.00
2018-05-09T12:20:55.266Z,2352.00
2018-05-09T12:22:00.816Z,1720.00
2018-05-09T12:23:06.361Z,1660.00
2018-05-09T12:24:11.909Z,1608.00
2018-05-09T12:25:17.461Z,3124.00
2018-05-09T12:26:23.003Z,2208.00
2018-05-09T12:27:28.556Z,3280.00
2018-05-09T12:28:34.103Z,3272.00
2018-05-09T12:29:39.660Z,3300.00
2018-05-09T12:30:45.202Z,3144.00
2018-05-09T12:31:50.747Z,3316.00
2018-05-09T12:32:56.299Z,3364.00
2018-05-09T12:34:01.848Z,3348.00
2018-05-09T12:35:07.403Z,3340.00
2018-05-09T12:36:12.940Z,3376.00
2018-05-09T12:37:18.496Z,3392.00
2018-05-09T12:38:24.046Z,3384.00
2018-05-09T12:39:29.594Z,3356.00
2018-05-09T12:40:35.139Z,3336.00
2018-05-09T12:41:40.687Z,3392.00
2018-05-09T12:42:46.240Z,3340.00
2018-05-09T12:43:51.788Z,3296.00
2018-05-09T12:44:57.337Z,3264.00
2018-05-09T12:46:02.882Z,3324.00
2018-05-09T12:47:08.435Z,3368.00
2018-05-09T12:48:13.985Z,3396.00
2018-05-09T12:49:19.537Z,3444.00
2018-05-09T12:50:25.084Z,3408.00
2018-05-09T12:51:30.634Z,3380.00
2018-05-09T12:52:36.177Z,3336.00
2018-05-09T12:53:41.731Z,3352.00
2018-05-09T12:54:47.279Z,3328.00
2018-05-09T12:55:52.830Z,3296.00
2018-05-09T12:56:58.379Z,3292.00
2018-05-09T12:58:03.928Z,3196.00
2018-05-09T12:59:09.471Z,1732.00
2018-05-09T13:00:15.025Z,1736.00
2018-05-09T13:01:20.589Z,1800.00
2018-05-09T13:02:26.121Z,1896.00
2018-05-09T13:03:31.674Z,1852.00
2018-05-09T13:04:37.223Z,2544.00
2018-05-09T13:05:42.772Z,1824.00
2018-05-09T13:06:48.321Z,2104.00
2018-05-09T13:07:53.872Z,2636.00
2018-05-09T13:08:59.419Z,2392.00
2018-05-09T13:10:04.965Z,1824.00
2018-05-09T13:11:10.515Z,3172.00
2018-05-09T13:12:16.089Z,3096.00
2018-05-09T13:13:21.708Z,3104.00
2018-05-09T13:14:27.169Z,3072.00
2018-05-09T13:15:32.715Z,3080.00
2018-05-09T13:16:38.258Z,3044.00
2018-05-09T13:17:43.808Z,3048.00
2018-05-09T13:18:49.357Z,3020.00
2018-05-09T13:19:54.910Z,2900.00
2018-05-09T13:21:00.465Z,2348.00
2018-05-09T13:22:06.006Z,1464.00
2018-05-09T13:23:11.552Z,2432.00
2018-05-09T13:24:17.102Z,2872.00
2018-05-09T13:25:22.655Z,2820.00
2018-05-09T13:26:28.202Z,2756.00
2018-05-09T13:27:33.749Z,1532.00
2018-05-09T13:28:39.294Z,1556.00
2018-05-09T13:29:44.844Z,1684.00
2018-05-09T13:30:50.399Z,2868.00
2018-05-09T13:31:55.940Z,2264.00
2018-05-09T13:33:01.493Z,1660.00
2018-05-09T13:34:07.045Z,1720.00
2018-05-09T13:35:12.590Z,2956.00